sensor_id;sensor_type;location;lat;lon;timestamp;P1;durP1;ratioP1;P2;durP2;ratioP2
10041;SDS011;5061;49.068;12.058;2022-11-13T00:00:46;1.53;;;1.40;;
10041;SDS011;5061;49.068;12.058;2022-11-13T00:04:07;1.57;;;1.40;;
10041;SDS011;5061;49.068;12.058;2022-11-13T00:07:29;1.60;;;1.50;;
10041;SDS011;5061;49.068;12.058;2022-11-13T00:10:50;1.70;;;1.60;;
10041;SDS011;5061;49.068;12.058;2022-11-13T00:14:10;2.27;;;2.07;;
10041;SDS011;5061;49.068;12.058;2022-11-13T00:17:31;1.50;;;1.40;;
10041;SDS011;5061;49.068;12.058;2022-11-13T00:20:52;1.40;;;1.30;;
10041;SDS011;5061;49.068;12.058;2022-11-13T00:24:12;1.53;;;1.40;;
10041;SDS011;5061;49.068;12.058;2022-11-13T00:27:33;2.07;;;1.87;;
10041;SDS011;5061;49.068;12.058;2022-11-13T00:30:57;1.43;;;1.33;;
10041;SDS011;5061;49.068;12.058;2022-11-13T00:34:19;1.73;;;1.63;;
10041;SDS011;5061;49.068;12.058;2022-11-13T00:37:39;1.83;;;1.73;;
10041;SDS011;5061;49.068;12.058;2022-11-13T00:41:00;1.80;;;1.70;;
10041;SDS011;5061;49.068;12.058;2022-11-13T00:44:21;2.17;;;1.97;;
10041;SDS011;5061;49.068;12.058;2022-11-13T00:47:42;2.10;;;1.90;;
10041;SDS011;5061;49.068;12.058;2022-11-13T00:51:03;1.83;;;1.73;;
10041;SDS011;5061;49.068;12.058;2022-11-13T00:54:24;2.03;;;1.60;;
10041;SDS011;5061;49.068;12.058;2022-11-13T00:57:44;2.30;;;1.93;;
10041;SDS011;5061;49.068;12.058;2022-11-13T01:01:06;1.73;;;1.47;;
10041;SDS011;5061;49.068;12.058;2022-11-13T01:04:31;1.30;;;1.20;;
10041;SDS011;5061;49.068;12.058;2022-11-13T01:07:52;2.03;;;1.83;;
10041;SDS011;5061;49.068;12.058;2022-11-13T01:11:15;1.60;;;1.50;;
10041;SDS011;5061;49.068;12.058;2022-11-13T01:14:38;1.77;;;1.67;;
10041;SDS011;5061;49.068;12.058;2022-11-13T01:17:58;2.27;;;2.07;;
10041;SDS011;5061;49.068;12.058;2022-11-13T01:21:20;1.90;;;1.80;;
10041;SDS011;5061;49.068;12.058;2022-11-13T01:24:42;1.90;;;1.80;;
10041;SDS011;5061;49.068;12.058;2022-11-13T01:28:03;1.90;;;1.70;;
10041;SDS011;5061;49.068;12.058;2022-11-13T01:31:25;1.70;;;1.60;;
10041;SDS011;5061;49.068;12.058;2022-11-13T01:34:47;2.23;;;2.03;;
10041;SDS011;5061;49.068;12.058;2022-11-13T01:38:07;1.70;;;1.60;;
10041;SDS011;5061;49.068;12.058;2022-11-13T01:41:29;1.97;;;1.80;;
10041;SDS011;5061;49.068;12.058;2022-11-13T01:44:53;2.37;;;1.80;;
10041;SDS011;5061;49.068;12.058;2022-11-13T01:48:15;1.70;;;1.60;;
10041;SDS011;5061;49.068;12.058;2022-11-13T01:51:38;1.87;;;1.77;;
10041;SDS011;5061;49.068;12.058;2022-11-13T01:55:07;1.93;;;1.83;;
10041;SDS011;5061;49.068;12.058;2022-11-13T01:58:34;2.20;;;2.00;;
10041;SDS011;5061;49.068;12.058;2022-11-13T02:01:55;2.40;;;1.97;;
10041;SDS011;5061;49.068;12.058;2022-11-13T02:05:16;1.80;;;1.70;;
10041;SDS011;5061;49.068;12.058;2022-11-13T02:08:36;1.80;;;1.70;;
10041;SDS011;5061;49.068;12.058;2022-11-13T02:11:57;2.00;;;1.70;;
10041;SDS011;5061;49.068;12.058;2022-11-13T02:15:19;2.43;;;2.23;;
10041;SDS011;5061;49.068;12.058;2022-11-13T02:18:42;2.10;;;1.90;;
10041;SDS011;5061;49.068;12.058;2022-11-13T02:22:12;2.57;;;2.37;;
10041;SDS011;5061;49.068;12.058;2022-11-13T02:25:46;2.77;;;2.53;;
10041;SDS011;5061;49.068;12.058;2022-11-13T02:29:09;2.40;;;2.20;;
10041;SDS011;5061;49.068;12.058;2022-11-13T02:32:30;3.70;;;2.97;;
10041;SDS011;5061;49.068;12.058;2022-11-13T02:35:50;2.53;;;2.33;;
10041;SDS011;5061;49.068;12.058;2022-11-13T02:39:11;2.70;;;2.40;;
10041;SDS011;5061;49.068;12.058;2022-11-13T02:42:33;2.40;;;2.20;;
10041;SDS011;5061;49.068;12.058;2022-11-13T02:45:53;3.70;;;2.83;;
10041;SDS011;5061;49.068;12.058;2022-11-13T02:49:14;3.50;;;2.70;;
10041;SDS011;5061;49.068;12.058;2022-11-13T02:52:35;3.50;;;2.80;;
10041;SDS011;5061;49.068;12.058;2022-11-13T02:55:56;3.47;;;2.30;;
10041;SDS011;5061;49.068;12.058;2022-11-13T02:59:16;3.10;;;2.33;;
10041;SDS011;5061;49.068;12.058;2022-11-13T03:02:37;2.47;;;2.27;;
10041;SDS011;5061;49.068;12.058;2022-11-13T03:05:58;2.10;;;1.90;;
10041;SDS011;5061;49.068;12.058;2022-11-13T03:09:18;2.50;;;2.00;;
10041;SDS011;5061;49.068;12.058;2022-11-13T03:12:39;2.33;;;2.13;;
10041;SDS011;5061;49.068;12.058;2022-11-13T03:16:33;2.53;;;2.10;;
10041;SDS011;5061;49.068;12.058;2022-11-13T03:19:46;4.17;;;2.33;;
10041;SDS011;5061;49.068;12.058;2022-11-13T03:23:07;2.80;;;2.33;;
10041;SDS011;5061;49.068;12.058;2022-11-13T03:26:28;2.93;;;2.63;;
10041;SDS011;5061;49.068;12.058;2022-11-13T03:29:49;3.13;;;2.37;;
10041;SDS011;5061;49.068;12.058;2022-11-13T03:33:09;2.70;;;2.23;;
10041;SDS011;5061;49.068;12.058;2022-11-13T03:36:30;2.57;;;2.10;;
10041;SDS011;5061;49.068;12.058;2022-11-13T03:39:50;2.60;;;2.07;;
10041;SDS011;5061;49.068;12.058;2022-11-13T03:43:11;2.57;;;2.10;;
10041;SDS011;5061;49.068;12.058;2022-11-13T03:46:32;3.70;;;2.50;;
10041;SDS011;5061;49.068;12.058;2022-11-13T03:49:52;2.57;;;2.37;;
10041;SDS011;5061;49.068;12.058;2022-11-13T03:53:13;2.80;;;2.60;;
10041;SDS011;5061;49.068;12.058;2022-11-13T03:56:34;5.40;;;2.83;;
10041;SDS011;5061;49.068;12.058;2022-11-13T03:59:55;2.30;;;2.07;;
10041;SDS011;5061;49.068;12.058;2022-11-13T04:03:15;3.90;;;3.23;;
10041;SDS011;5061;49.068;12.058;2022-11-13T04:06:36;2.77;;;2.40;;
10041;SDS011;5061;49.068;12.058;2022-11-13T04:09:57;2.67;;;2.47;;
10041;SDS011;5061;49.068;12.058;2022-11-13T04:13:17;3.90;;;3.30;;
10041;SDS011;5061;49.068;12.058;2022-11-13T04:16:38;3.77;;;2.90;;
10041;SDS011;5061;49.068;12.058;2022-11-13T04:19:58;3.40;;;2.80;;
10041;SDS011;5061;49.068;12.058;2022-11-13T04:23:19;3.90;;;2.77;;
10041;SDS011;5061;49.068;12.058;2022-11-13T04:26:39;3.27;;;2.97;;
10041;SDS011;5061;49.068;12.058;2022-11-13T04:30:00;2.93;;;2.63;;
10041;SDS011;5061;49.068;12.058;2022-11-13T04:33:21;2.80;;;2.40;;
10041;SDS011;5061;49.068;12.058;2022-11-13T04:36:42;4.00;;;2.77;;
10041;SDS011;5061;49.068;12.058;2022-11-13T04:40:03;3.70;;;2.80;;
10041;SDS011;5061;49.068;12.058;2022-11-13T04:43:24;4.57;;;2.90;;
10041;SDS011;5061;49.068;12.058;2022-11-13T04:46:44;6.43;;;4.43;;
10041;SDS011;5061;49.068;12.058;2022-11-13T04:50:06;6.40;;;4.70;;
10041;SDS011;5061;49.068;12.058;2022-11-13T04:53:27;8.30;;;4.83;;
10041;SDS011;5061;49.068;12.058;2022-11-13T04:56:47;7.97;;;5.30;;
10041;SDS011;5061;49.068;12.058;2022-11-13T05:00:08;9.80;;;6.40;;
10041;SDS011;5061;49.068;12.058;2022-11-13T05:03:29;9.80;;;6.73;;
10041;SDS011;5061;49.068;12.058;2022-11-13T05:06:50;11.60;;;7.17;;
10041;SDS011;5061;49.068;12.058;2022-11-13T05:10:10;12.23;;;6.63;;
10041;SDS011;5061;49.068;12.058;2022-11-13T05:13:32;13.27;;;7.03;;
10041;SDS011;5061;49.068;12.058;2022-11-13T05:16:54;11.87;;;6.80;;
10041;SDS011;5061;49.068;12.058;2022-11-13T05:20:14;11.03;;;7.20;;
10041;SDS011;5061;49.068;12.058;2022-11-13T05:23:35;10.40;;;6.97;;
10041;SDS011;5061;49.068;12.058;2022-11-13T05:26:56;8.23;;;5.87;;
10041;SDS011;5061;49.068;12.058;2022-11-13T05:30:16;9.80;;;6.13;;
10041;SDS011;5061;49.068;12.058;2022-11-13T05:33:38;5.90;;;4.53;;
10041;SDS011;5061;49.068;12.058;2022-11-13T05:36:59;7.67;;;5.47;;
10041;SDS011;5061;49.068;12.058;2022-11-13T05:40:20;6.17;;;4.30;;
10041;SDS011;5061;49.068;12.058;2022-11-13T05:43:41;8.33;;;5.53;;
10041;SDS011;5061;49.068;12.058;2022-11-13T05:47:02;7.43;;;4.67;;
10041;SDS011;5061;49.068;12.058;2022-11-13T05:50:23;7.90;;;5.00;;
10041;SDS011;5061;49.068;12.058;2022-11-13T05:53:43;5.30;;;4.47;;
10041;SDS011;5061;49.068;12.058;2022-11-13T05:57:04;4.50;;;3.67;;
10041;SDS011;5061;49.068;12.058;2022-11-13T06:00:24;5.23;;;3.80;;
10041;SDS011;5061;49.068;12.058;2022-11-13T06:03:45;6.37;;;4.20;;
10041;SDS011;5061;49.068;12.058;2022-11-13T06:07:06;5.13;;;3.73;;
10041;SDS011;5061;49.068;12.058;2022-11-13T06:10:27;5.33;;;3.67;;
10041;SDS011;5061;49.068;12.058;2022-11-13T06:13:48;5.17;;;3.70;;
10041;SDS011;5061;49.068;12.058;2022-11-13T06:17:10;4.50;;;3.40;;
10041;SDS011;5061;49.068;12.058;2022-11-13T06:20:32;4.93;;;3.50;;
10041;SDS011;5061;49.068;12.058;2022-11-13T06:23:57;4.57;;;3.57;;
10041;SDS011;5061;49.068;12.058;2022-11-13T06:27:18;7.53;;;4.63;;
10041;SDS011;5061;49.068;12.058;2022-11-13T06:30:39;4.80;;;3.43;;
10041;SDS011;5061;49.068;12.058;2022-11-13T06:33:59;5.03;;;3.87;;
10041;SDS011;5061;49.068;12.058;2022-11-13T06:37:21;4.50;;;3.40;;
10041;SDS011;5061;49.068;12.058;2022-11-13T06:40:41;4.83;;;3.70;;
10041;SDS011;5061;49.068;12.058;2022-11-13T06:44:02;6.20;;;4.10;;
10041;SDS011;5061;49.068;12.058;2022-11-13T06:47:22;7.23;;;5.60;;
10041;SDS011;5061;49.068;12.058;2022-11-13T06:50:43;7.03;;;5.10;;
10041;SDS011;5061;49.068;12.058;2022-11-13T06:54:03;7.03;;;5.30;;
10041;SDS011;5061;49.068;12.058;2022-11-13T06:57:24;7.67;;;5.43;;
10041;SDS011;5061;49.068;12.058;2022-11-13T07:00:45;7.00;;;5.30;;
10041;SDS011;5061;49.068;12.058;2022-11-13T07:04:05;7.27;;;5.17;;
10041;SDS011;5061;49.068;12.058;2022-11-13T07:07:30;7.30;;;5.33;;
10041;SDS011;5061;49.068;12.058;2022-11-13T07:10:51;7.83;;;5.17;;
10041;SDS011;5061;49.068;12.058;2022-11-13T07:14:16;8.77;;;4.80;;
10041;SDS011;5061;49.068;12.058;2022-11-13T07:17:37;7.93;;;5.87;;
10041;SDS011;5061;49.068;12.058;2022-11-13T07:20:57;7.93;;;5.30;;
10041;SDS011;5061;49.068;12.058;2022-11-13T07:24:23;10.13;;;6.67;;
10041;SDS011;5061;49.068;12.058;2022-11-13T07:27:44;7.37;;;4.97;;
10041;SDS011;5061;49.068;12.058;2022-11-13T07:31:05;8.30;;;5.60;;
10041;SDS011;5061;49.068;12.058;2022-11-13T07:34:26;9.03;;;5.90;;
10041;SDS011;5061;49.068;12.058;2022-11-13T07:37:46;8.80;;;5.50;;
10041;SDS011;5061;49.068;12.058;2022-11-13T07:41:07;6.03;;;4.80;;
10041;SDS011;5061;49.068;12.058;2022-11-13T07:44:28;9.60;;;6.20;;
10041;SDS011;5061;49.068;12.058;2022-11-13T07:47:48;10.93;;;6.67;;
10041;SDS011;5061;49.068;12.058;2022-11-13T07:51:09;10.30;;;6.73;;
10041;SDS011;5061;49.068;12.058;2022-11-13T07:54:29;10.40;;;6.80;;
10041;SDS011;5061;49.068;12.058;2022-11-13T07:57:50;11.13;;;6.57;;
10041;SDS011;5061;49.068;12.058;2022-11-13T08:01:14;7.80;;;5.70;;
10041;SDS011;5061;49.068;12.058;2022-11-13T08:04:34;9.20;;;6.10;;
10041;SDS011;5061;49.068;12.058;2022-11-13T08:07:55;12.10;;;6.90;;
10041;SDS011;5061;49.068;12.058;2022-11-13T08:11:15;9.97;;;7.50;;
10041;SDS011;5061;49.068;12.058;2022-11-13T08:14:39;13.33;;;7.30;;
10041;SDS011;5061;49.068;12.058;2022-11-13T08:18:00;7.43;;;5.20;;
10041;SDS011;5061;49.068;12.058;2022-11-13T08:21:22;8.37;;;6.63;;
10041;SDS011;5061;49.068;12.058;2022-11-13T08:24:43;11.67;;;6.47;;
10041;SDS011;5061;49.068;12.058;2022-11-13T08:28:03;10.03;;;6.93;;
10041;SDS011;5061;49.068;12.058;2022-11-13T08:31:24;11.63;;;7.00;;
10041;SDS011;5061;49.068;12.058;2022-11-13T08:34:45;10.93;;;7.30;;
10041;SDS011;5061;49.068;12.058;2022-11-13T08:38:06;11.40;;;7.13;;
10041;SDS011;5061;49.068;12.058;2022-11-13T08:41:28;8.97;;;5.60;;
10041;SDS011;5061;49.068;12.058;2022-11-13T08:44:48;10.33;;;6.37;;
10041;SDS011;5061;49.068;12.058;2022-11-13T08:48:09;10.33;;;5.97;;
10041;SDS011;5061;49.068;12.058;2022-11-13T08:51:29;7.10;;;5.37;;
10041;SDS011;5061;49.068;12.058;2022-11-13T08:54:50;7.93;;;5.03;;
10041;SDS011;5061;49.068;12.058;2022-11-13T08:58:11;7.07;;;4.73;;
10041;SDS011;5061;49.068;12.058;2022-11-13T09:01:32;6.33;;;4.27;;
10041;SDS011;5061;49.068;12.058;2022-11-13T09:04:52;4.60;;;3.60;;
10041;SDS011;5061;49.068;12.058;2022-11-13T09:08:13;4.60;;;3.97;;
10041;SDS011;5061;49.068;12.058;2022-11-13T09:11:36;5.03;;;3.50;;
10041;SDS011;5061;49.068;12.058;2022-11-13T09:14:58;5.37;;;3.90;;
10041;SDS011;5061;49.068;12.058;2022-11-13T09:18:19;5.50;;;3.53;;
10041;SDS011;5061;49.068;12.058;2022-11-13T09:21:39;5.00;;;3.33;;
10041;SDS011;5061;49.068;12.058;2022-11-13T09:25:00;5.43;;;3.87;;
10041;SDS011;5061;49.068;12.058;2022-11-13T09:28:21;5.23;;;3.70;;
10041;SDS011;5061;49.068;12.058;2022-11-13T09:31:42;5.50;;;3.73;;
10041;SDS011;5061;49.068;12.058;2022-11-13T09:35:03;4.73;;;3.47;;
10041;SDS011;5061;49.068;12.058;2022-11-13T09:38:23;8.47;;;4.60;;
10041;SDS011;5061;49.068;12.058;2022-11-13T09:41:50;6.90;;;4.17;;
10041;SDS011;5061;49.068;12.058;2022-11-13T09:45:16;5.53;;;3.93;;
10041;SDS011;5061;49.068;12.058;2022-11-13T09:48:38;4.23;;;3.27;;
10041;SDS011;5061;49.068;12.058;2022-11-13T09:52:02;4.97;;;3.80;;
10041;SDS011;5061;49.068;12.058;2022-11-13T09:55:31;3.90;;;2.77;;
10041;SDS011;5061;49.068;12.058;2022-11-13T09:59:01;3.33;;;2.40;;
10041;SDS011;5061;49.068;12.058;2022-11-13T10:02:40;4.60;;;3.30;;
10041;SDS011;5061;49.068;12.058;2022-11-13T10:06:13;5.00;;;3.17;;
10041;SDS011;5061;49.068;12.058;2022-11-13T10:09:53;5.40;;;3.80;;
10041;SDS011;5061;49.068;12.058;2022-11-13T10:13:32;4.50;;;3.33;;
10041;SDS011;5061;49.068;12.058;2022-11-13T10:17:07;4.90;;;3.40;;
10041;SDS011;5061;49.068;12.058;2022-11-13T10:21:01;5.30;;;4.00;;
10041;SDS011;5061;49.068;12.058;2022-11-13T10:24:25;3.87;;;3.10;;
10041;SDS011;5061;49.068;12.058;2022-11-13T10:27:58;4.90;;;3.93;;
10041;SDS011;5061;49.068;12.058;2022-11-13T10:31:20;5.90;;;4.33;;
10041;SDS011;5061;49.068;12.058;2022-11-13T10:34:42;5.50;;;4.27;;
10041;SDS011;5061;49.068;12.058;2022-11-13T10:38:10;9.67;;;6.13;;
10041;SDS011;5061;49.068;12.058;2022-11-13T10:41:51;8.13;;;5.93;;
10041;SDS011;5061;49.068;12.058;2022-11-13T10:45:16;10.13;;;6.37;;
10041;SDS011;5061;49.068;12.058;2022-11-13T10:48:41;8.47;;;6.07;;
10041;SDS011;5061;49.068;12.058;2022-11-13T10:52:11;6.70;;;5.33;;
10041;SDS011;5061;49.068;12.058;2022-11-13T10:55:40;7.97;;;5.60;;
10041;SDS011;5061;49.068;12.058;2022-11-13T11:02:36;7.90;;;5.90;;
10041;SDS011;5061;49.068;12.058;2022-11-13T11:05:57;8.63;;;6.07;;
10041;SDS011;5061;49.068;12.058;2022-11-13T11:09:25;10.20;;;6.40;;
10041;SDS011;5061;49.068;12.058;2022-11-13T11:12:51;9.77;;;7.10;;
10041;SDS011;5061;49.068;12.058;2022-11-13T11:16:15;8.90;;;6.30;;
10041;SDS011;5061;49.068;12.058;2022-11-13T11:19:39;9.77;;;5.90;;
10041;SDS011;5061;49.068;12.058;2022-11-13T11:23:12;8.23;;;5.73;;
10041;SDS011;5061;49.068;12.058;2022-11-13T11:33:33;7.07;;;4.70;;
10041;SDS011;5061;49.068;12.058;2022-11-13T11:37:22;5.43;;;4.27;;
10041;SDS011;5061;49.068;12.058;2022-11-13T11:40:55;4.63;;;3.83;;
10041;SDS011;5061;49.068;12.058;2022-11-13T11:44:37;6.50;;;4.90;;
10041;SDS011;5061;49.068;12.058;2022-11-13T11:48:15;6.27;;;4.60;;
10041;SDS011;5061;49.068;12.058;2022-11-13T11:51:52;6.20;;;4.10;;
10041;SDS011;5061;49.068;12.058;2022-11-13T12:02:44;6.77;;;4.50;;
10041;SDS011;5061;49.068;12.058;2022-11-13T12:06:23;6.40;;;4.47;;
10041;SDS011;5061;49.068;12.058;2022-11-13T12:31:59;9.10;;;6.60;;
10041;SDS011;5061;49.068;12.058;2022-11-13T12:35:36;10.87;;;6.67;;
10041;SDS011;5061;49.068;12.058;2022-11-13T12:42:45;8.10;;;5.37;;
10041;SDS011;5061;49.068;12.058;2022-11-13T12:46:10;7.77;;;5.40;;
10041;SDS011;5061;49.068;12.058;2022-11-13T12:49:32;7.87;;;5.10;;
10041;SDS011;5061;49.068;12.058;2022-11-13T12:53:02;7.80;;;5.30;;
10041;SDS011;5061;49.068;12.058;2022-11-13T12:59:52;8.40;;;5.90;;
10041;SDS011;5061;49.068;12.058;2022-11-13T13:07:04;8.80;;;6.10;;
10041;SDS011;5061;49.068;12.058;2022-11-13T13:10:57;8.40;;;5.83;;
10041;SDS011;5061;49.068;12.058;2022-11-13T13:21:41;8.37;;;6.27;;
10041;SDS011;5061;49.068;12.058;2022-11-13T13:25:04;9.60;;;7.20;;
10041;SDS011;5061;49.068;12.058;2022-11-13T13:28:26;8.93;;;5.87;;
10041;SDS011;5061;49.068;12.058;2022-11-13T13:39:50;12.23;;;7.13;;
10041;SDS011;5061;49.068;12.058;2022-11-13T13:46:47;12.70;;;8.40;;
10041;SDS011;5061;49.068;12.058;2022-11-13T13:50:12;11.47;;;7.47;;
10041;SDS011;5061;49.068;12.058;2022-11-13T13:53:39;10.90;;;7.43;;
10041;SDS011;5061;49.068;12.058;2022-11-13T13:56:59;11.57;;;8.83;;
10041;SDS011;5061;49.068;12.058;2022-11-13T14:00:21;14.43;;;8.00;;
10041;SDS011;5061;49.068;12.058;2022-11-13T14:03:42;10.07;;;7.00;;
10041;SDS011;5061;49.068;12.058;2022-11-13T14:07:04;9.93;;;7.73;;
10041;SDS011;5061;49.068;12.058;2022-11-13T14:10:38;11.33;;;6.20;;
10041;SDS011;5061;49.068;12.058;2022-11-13T14:14:09;8.90;;;6.43;;
10041;SDS011;5061;49.068;12.058;2022-11-13T14:17:39;9.30;;;6.47;;
10041;SDS011;5061;49.068;12.058;2022-11-13T14:21:03;7.67;;;5.87;;
10041;SDS011;5061;49.068;12.058;2022-11-13T14:24:29;9.23;;;6.53;;
10041;SDS011;5061;49.068;12.058;2022-11-13T14:27:55;8.30;;;6.20;;
10041;SDS011;5061;49.068;12.058;2022-11-13T14:31:15;8.37;;;6.07;;
10041;SDS011;5061;49.068;12.058;2022-11-13T14:34:36;11.17;;;6.70;;
10041;SDS011;5061;49.068;12.058;2022-11-13T14:38:01;12.83;;;8.17;;
10041;SDS011;5061;49.068;12.058;2022-11-13T14:44:52;7.37;;;5.93;;
10041;SDS011;5061;49.068;12.058;2022-11-13T14:48:17;9.33;;;7.23;;
10041;SDS011;5061;49.068;12.058;2022-11-13T14:51:52;7.80;;;6.00;;
10041;SDS011;5061;49.068;12.058;2022-11-13T14:55:21;9.07;;;6.00;;
10041;SDS011;5061;49.068;12.058;2022-11-13T14:58:45;10.90;;;7.27;;
10041;SDS011;5061;49.068;12.058;2022-11-13T15:02:10;8.63;;;6.53;;
10041;SDS011;5061;49.068;12.058;2022-11-13T15:05:34;10.90;;;7.10;;
10041;SDS011;5061;49.068;12.058;2022-11-13T15:08:55;8.20;;;6.07;;
10041;SDS011;5061;49.068;12.058;2022-11-13T15:12:17;10.27;;;6.73;;
10041;SDS011;5061;49.068;12.058;2022-11-13T15:15:37;11.20;;;7.07;;
10041;SDS011;5061;49.068;12.058;2022-11-13T15:19:06;8.53;;;6.57;;
10041;SDS011;5061;49.068;12.058;2022-11-13T15:22:49;10.83;;;7.30;;
10041;SDS011;5061;49.068;12.058;2022-11-13T15:26:13;13.13;;;7.90;;
10041;SDS011;5061;49.068;12.058;2022-11-13T15:29:37;10.97;;;6.83;;
10041;SDS011;5061;49.068;12.058;2022-11-13T15:32:57;9.93;;;7.13;;
10041;SDS011;5061;49.068;12.058;2022-11-13T15:36:18;7.63;;;5.40;;
10041;SDS011;5061;49.068;12.058;2022-11-13T15:39:39;9.03;;;6.07;;
10041;SDS011;5061;49.068;12.058;2022-11-13T15:43:00;14.93;;;7.03;;
10041;SDS011;5061;49.068;12.058;2022-11-13T15:46:21;14.53;;;9.37;;
10041;SDS011;5061;49.068;12.058;2022-11-13T15:49:43;12.03;;;8.90;;
10041;SDS011;5061;49.068;12.058;2022-11-13T15:53:04;13.33;;;9.10;;
10041;SDS011;5061;49.068;12.058;2022-11-13T15:56:27;13.73;;;9.00;;
10041;SDS011;5061;49.068;12.058;2022-11-13T15:59:50;12.67;;;8.40;;
10041;SDS011;5061;49.068;12.058;2022-11-13T16:03:10;13.80;;;9.00;;
10041;SDS011;5061;49.068;12.058;2022-11-13T16:06:31;15.70;;;9.27;;
10041;SDS011;5061;49.068;12.058;2022-11-13T16:09:56;14.00;;;8.60;;
10041;SDS011;5061;49.068;12.058;2022-11-13T16:13:16;14.87;;;10.83;;
10041;SDS011;5061;49.068;12.058;2022-11-13T16:16:37;17.00;;;10.70;;
10041;SDS011;5061;49.068;12.058;2022-11-13T16:20:02;19.00;;;11.93;;
10041;SDS011;5061;49.068;12.058;2022-11-13T16:23:26;18.10;;;11.40;;
10041;SDS011;5061;49.068;12.058;2022-11-13T16:26:50;22.00;;;12.43;;
10041;SDS011;5061;49.068;12.058;2022-11-13T16:30:18;17.93;;;11.77;;
10041;SDS011;5061;49.068;12.058;2022-11-13T16:33:41;18.43;;;11.83;;
10041;SDS011;5061;49.068;12.058;2022-11-13T16:37:03;20.20;;;11.40;;
10041;SDS011;5061;49.068;12.058;2022-11-13T16:40:25;18.90;;;10.67;;
10041;SDS011;5061;49.068;12.058;2022-11-13T16:43:46;22.43;;;12.50;;
10041;SDS011;5061;49.068;12.058;2022-11-13T16:47:14;17.27;;;11.17;;
10041;SDS011;5061;49.068;12.058;2022-11-13T16:50:41;17.13;;;10.67;;
10041;SDS011;5061;49.068;12.058;2022-11-13T16:54:02;15.20;;;9.80;;
10041;SDS011;5061;49.068;12.058;2022-11-13T16:57:22;15.20;;;9.87;;
10041;SDS011;5061;49.068;12.058;2022-11-13T17:00:43;14.37;;;8.90;;
10041;SDS011;5061;49.068;12.058;2022-11-13T17:04:04;21.13;;;11.73;;
10041;SDS011;5061;49.068;12.058;2022-11-13T17:07:24;20.60;;;12.07;;
10041;SDS011;5061;49.068;12.058;2022-11-13T17:10:45;20.73;;;12.63;;
10041;SDS011;5061;49.068;12.058;2022-11-13T17:14:06;19.17;;;11.27;;
10041;SDS011;5061;49.068;12.058;2022-11-13T17:17:29;19.70;;;10.67;;
10041;SDS011;5061;49.068;12.058;2022-11-13T17:20:49;19.10;;;10.93;;
10041;SDS011;5061;49.068;12.058;2022-11-13T17:24:11;17.40;;;10.33;;
10041;SDS011;5061;49.068;12.058;2022-11-13T17:27:31;18.70;;;12.17;;
10041;SDS011;5061;49.068;12.058;2022-11-13T17:30:52;21.10;;;11.80;;
10041;SDS011;5061;49.068;12.058;2022-11-13T17:34:12;22.60;;;13.10;;
10041;SDS011;5061;49.068;12.058;2022-11-13T17:37:33;16.87;;;10.43;;
10041;SDS011;5061;49.068;12.058;2022-11-13T17:40:54;17.70;;;10.60;;
10041;SDS011;5061;49.068;12.058;2022-11-13T17:44:15;19.00;;;11.30;;
10041;SDS011;5061;49.068;12.058;2022-11-13T17:47:36;19.73;;;11.93;;
10041;SDS011;5061;49.068;12.058;2022-11-13T17:50:57;20.30;;;12.37;;
10041;SDS011;5061;49.068;12.058;2022-11-13T17:54:19;26.23;;;12.90;;
10041;SDS011;5061;49.068;12.058;2022-11-13T17:57:40;18.70;;;11.50;;
10041;SDS011;5061;49.068;12.058;2022-11-13T18:01:05;22.90;;;12.80;;
10041;SDS011;5061;49.068;12.058;2022-11-13T18:04:36;20.87;;;11.87;;
10041;SDS011;5061;49.068;12.058;2022-11-13T18:07:57;23.60;;;14.40;;
10041;SDS011;5061;49.068;12.058;2022-11-13T18:11:21;18.50;;;11.87;;
10041;SDS011;5061;49.068;12.058;2022-11-13T18:14:43;19.30;;;11.30;;
10041;SDS011;5061;49.068;12.058;2022-11-13T18:18:05;18.40;;;11.37;;
10041;SDS011;5061;49.068;12.058;2022-11-13T18:21:28;20.70;;;13.10;;
10041;SDS011;5061;49.068;12.058;2022-11-13T18:24:50;21.93;;;12.07;;
10041;SDS011;5061;49.068;12.058;2022-11-13T18:28:13;20.70;;;12.77;;
10041;SDS011;5061;49.068;12.058;2022-11-13T18:31:34;17.73;;;10.07;;
10041;SDS011;5061;49.068;12.058;2022-11-13T18:34:54;16.70;;;11.83;;
10041;SDS011;5061;49.068;12.058;2022-11-13T18:38:15;18.43;;;11.30;;
10041;SDS011;5061;49.068;12.058;2022-11-13T18:41:36;18.93;;;11.60;;
10041;SDS011;5061;49.068;12.058;2022-11-13T18:44:56;18.83;;;11.77;;
10041;SDS011;5061;49.068;12.058;2022-11-13T18:48:17;19.40;;;11.80;;
10041;SDS011;5061;49.068;12.058;2022-11-13T18:51:38;19.10;;;11.83;;
10041;SDS011;5061;49.068;12.058;2022-11-13T18:54:58;18.10;;;10.77;;
10041;SDS011;5061;49.068;12.058;2022-11-13T18:58:19;21.57;;;12.67;;
10041;SDS011;5061;49.068;12.058;2022-11-13T19:01:39;16.63;;;10.37;;
10041;SDS011;5061;49.068;12.058;2022-11-13T19:05:01;17.33;;;10.63;;
10041;SDS011;5061;49.068;12.058;2022-11-13T19:08:22;18.70;;;11.23;;
10041;SDS011;5061;49.068;12.058;2022-11-13T19:11:42;20.07;;;12.50;;
10041;SDS011;5061;49.068;12.058;2022-11-13T19:15:04;21.13;;;13.10;;
10041;SDS011;5061;49.068;12.058;2022-11-13T19:18:27;21.87;;;14.13;;
10041;SDS011;5061;49.068;12.058;2022-11-13T19:21:47;22.87;;;14.47;;
10041;SDS011;5061;49.068;12.058;2022-11-13T19:25:08;20.30;;;13.80;;
10041;SDS011;5061;49.068;12.058;2022-11-13T19:28:35;21.53;;;12.60;;
10041;SDS011;5061;49.068;12.058;2022-11-13T19:31:56;26.50;;;14.73;;
10041;SDS011;5061;49.068;12.058;2022-11-13T19:35:17;22.00;;;12.77;;
10041;SDS011;5061;49.068;12.058;2022-11-13T19:38:38;19.73;;;12.33;;
10041;SDS011;5061;49.068;12.058;2022-11-13T19:41:59;20.57;;;12.57;;
10041;SDS011;5061;49.068;12.058;2022-11-13T19:45:20;22.80;;;13.37;;
10041;SDS011;5061;49.068;12.058;2022-11-13T19:48:42;25.47;;;15.57;;
10041;SDS011;5061;49.068;12.058;2022-11-13T19:52:04;22.47;;;14.30;;
10041;SDS011;5061;49.068;12.058;2022-11-13T19:55:25;22.40;;;13.33;;
10041;SDS011;5061;49.068;12.058;2022-11-13T19:58:47;24.57;;;13.90;;
10041;SDS011;5061;49.068;12.058;2022-11-13T20:02:08;23.93;;;13.80;;
10041;SDS011;5061;49.068;12.058;2022-11-13T20:05:29;28.20;;;16.97;;
10041;SDS011;5061;49.068;12.058;2022-11-13T20:08:50;28.90;;;15.30;;
10041;SDS011;5061;49.068;12.058;2022-11-13T20:12:10;23.60;;;14.93;;
10041;SDS011;5061;49.068;12.058;2022-11-13T20:15:31;23.90;;;14.30;;
10041;SDS011;5061;49.068;12.058;2022-11-13T20:18:54;28.90;;;17.80;;
10041;SDS011;5061;49.068;12.058;2022-11-13T20:22:16;26.90;;;17.23;;
10041;SDS011;5061;49.068;12.058;2022-11-13T20:25:37;28.87;;;17.07;;
10041;SDS011;5061;49.068;12.058;2022-11-13T20:28:57;25.10;;;15.00;;
10041;SDS011;5061;49.068;12.058;2022-11-13T20:32:18;22.93;;;13.70;;
10041;SDS011;5061;49.068;12.058;2022-11-13T20:35:41;19.00;;;12.23;;
10041;SDS011;5061;49.068;12.058;2022-11-13T20:39:02;24.40;;;13.97;;
10041;SDS011;5061;49.068;12.058;2022-11-13T20:42:23;21.03;;;13.97;;
10041;SDS011;5061;49.068;12.058;2022-11-13T20:45:44;20.83;;;12.87;;
10041;SDS011;5061;49.068;12.058;2022-11-13T20:49:04;26.03;;;15.53;;
10041;SDS011;5061;49.068;12.058;2022-11-13T20:52:25;25.63;;;14.50;;
10041;SDS011;5061;49.068;12.058;2022-11-13T20:55:46;23.77;;;14.37;;
10041;SDS011;5061;49.068;12.058;2022-11-13T20:59:06;23.73;;;13.27;;
10041;SDS011;5061;49.068;12.058;2022-11-13T21:02:27;24.20;;;13.17;;
10041;SDS011;5061;49.068;12.058;2022-11-13T21:05:47;22.07;;;12.40;;
10041;SDS011;5061;49.068;12.058;2022-11-13T21:09:08;21.80;;;11.80;;
10041;SDS011;5061;49.068;12.058;2022-11-13T21:12:30;23.67;;;13.30;;
10041;SDS011;5061;49.068;12.058;2022-11-13T21:15:51;20.40;;;12.60;;
10041;SDS011;5061;49.068;12.058;2022-11-13T21:19:12;24.03;;;13.00;;
10041;SDS011;5061;49.068;12.058;2022-11-13T21:22:32;22.17;;;13.37;;